Terminal Aerodrome Forecast
Issued by NWS Rapid City, SD

Home | Current Version | Previous Version | Text Only | Print | Product List | Glossary Off
Versions: 1 2 3 4 5 6 7 8 9 10 11 12 13 14 15 16 17 18 19 20 21 22 23 24 25 26

364
FTUS43 KUNR 241246 AAA
TAFRAP
TAF AMD
KRAP 241246Z 2413/2512 34012KT P6SM OVC006
      TEMPO 2413/2416 4SM -SHRA BR OVC003
     FM241600 34012KT P6SM OVC009
     FM242000 33011KT P6SM OVC015
      AMD NOT SKED=

USA.gov is the U.S. government's official web portal to all federal, state and local government web resources and services.